createdAt,value
2022-10-07T00:02:28.855Z,1012.72
2022-10-07T00:07:28.623Z,1012.75
2022-10-07T00:12:28.561Z,1012.69
2022-10-07T00:17:28.499Z,1012.68
2022-10-07T00:22:28.419Z,1012.61
2022-10-07T00:27:28.362Z,1012.58
2022-10-07T00:32:28.297Z,1012.59
2022-10-07T00:37:28.154Z,1012.53
2022-10-07T00:42:28.028Z,1012.44
2022-10-07T00:47:27.966Z,1012.37
2022-10-07T00:52:27.895Z,1012.36
2022-10-07T00:57:27.835Z,1012.23
2022-10-07T01:02:27.804Z,1012.21
2022-10-07T01:07:27.698Z,1012.12
2022-10-07T01:12:27.630Z,1012.16
2022-10-07T01:17:27.565Z,1012.04
2022-10-07T01:22:27.497Z,1012.05
2022-10-07T01:27:27.423Z,1011.97
2022-10-07T01:32:27.368Z,1011.92
2022-10-07T01:37:27.291Z,1011.92
2022-10-07T01:42:27.233Z,1011.83
2022-10-07T01:47:27.159Z,1011.81
2022-10-07T01:52:27.100Z,1011.77
2022-10-07T01:57:27.025Z,1011.70
2022-10-07T02:02:27.073Z,1011.63
2022-10-07T02:07:26.904Z,1011.53
2022-10-07T02:12:26.833Z,1011.53
2022-10-07T02:17:26.769Z,1011.45
2022-10-07T02:22:26.699Z,1011.46
2022-10-07T02:27:26.636Z,1011.32
2022-10-07T02:32:26.566Z,1011.35
2022-10-07T02:37:26.505Z,1011.26
2022-10-07T02:42:26.437Z,1011.21
2022-10-07T02:47:26.360Z,1011.17
2022-10-07T02:52:26.393Z,1011.09
2022-10-07T02:57:26.228Z,1011.10
2022-10-07T03:02:26.169Z,1011.10
2022-10-07T03:07:26.095Z,1011.03
2022-10-07T03:12:26.034Z,1011.02
2022-10-07T03:17:25.962Z,1011.05
2022-10-07T03:22:25.977Z,1010.90
2022-10-07T03:27:25.838Z,1010.86
2022-10-07T03:32:25.768Z,1010.90
2022-10-07T03:37:25.689Z,1010.90
2022-10-07T03:42:25.634Z,1010.82
2022-10-07T03:47:25.556Z,1010.76
2022-10-07T03:52:25.499Z,1010.73
2022-10-07T03:57:25.423Z,1010.64
2022-10-07T04:02:25.487Z,1010.58
2022-10-07T04:07:25.291Z,1010.51
2022-10-07T04:12:25.238Z,1010.54
2022-10-07T04:17:25.159Z,1010.46
2022-10-07T04:22:25.204Z,1010.45
2022-10-07T04:27:50.083Z,1010.38
2022-10-07T04:32:25.993Z,1010.33
2022-10-07T04:37:24.895Z,1010.32
2022-10-07T04:42:24.921Z,1010.27
2022-10-07T04:47:24.768Z,1010.19
2022-10-07T04:52:24.699Z,1010.27
2022-10-07T04:57:24.625Z,1010.24
2022-10-07T05:02:24.798Z,1010.11
2022-10-07T05:07:24.495Z,1010.07
2022-10-07T05:12:24.531Z,1010.08
2022-10-07T05:17:24.381Z,1010.10
2022-10-07T05:22:24.302Z,1010.01
2022-10-07T05:27:24.229Z,1010.02
2022-10-07T05:32:24.236Z,1009.98
2022-10-07T05:37:24.097Z,1009.96
2022-10-07T05:42:24.138Z,1009.83
2022-10-07T05:47:23.964Z,1009.90
2022-10-07T05:52:24.035Z,1009.86
2022-10-07T05:57:23.833Z,1009.82
2022-10-07T06:02:24.012Z,1009.85
2022-10-07T06:07:28.989Z,1009.88
2022-10-07T06:12:23.639Z,1009.75
2022-10-07T06:17:23.641Z,1009.78
2022-10-07T06:22:23.623Z,1009.66
2022-10-07T06:27:23.431Z,1009.65
2022-10-07T06:32:23.489Z,1009.60
2022-10-07T06:37:23.455Z,1009.63
2022-10-07T06:42:23.240Z,1009.62
2022-10-07T06:47:23.270Z,1009.59
2022-10-07T06:52:23.186Z,1009.58
2022-10-07T07:02:24.057Z,1009.50
2022-10-07T07:07:22.900Z,1009.47
2022-10-07T07:12:22.837Z,1009.56
2022-10-07T07:17:22.779Z,1009.56
2022-10-07T07:22:22.706Z,1009.52
2022-10-07T07:27:22.743Z,1009.39
2022-10-07T07:32:22.657Z,1009.40
2022-10-07T07:37:22.500Z,1009.31
2022-10-07T07:42:22.441Z,1009.27
2022-10-07T07:47:22.364Z,1009.29
2022-10-07T07:52:22.380Z,1009.24
2022-10-07T07:57:22.352Z,1009.22
2022-10-07T08:02:22.309Z,1009.17
2022-10-07T08:07:22.098Z,1009.06
2022-10-07T08:12:22.189Z,1009.04
2022-10-07T08:17:22.115Z,1009.01
2022-10-07T08:22:21.953Z,1009.01
2022-10-07T08:27:21.832Z,1008.89
2022-10-07T08:32:21.770Z,1008.89
2022-10-07T08:37:21.696Z,1008.88
2022-10-07T08:42:21.707Z,1008.86
2022-10-07T08:47:21.688Z,1008.80
2022-10-07T08:52:21.588Z,1008.77
2022-10-07T08:57:21.455Z,1008.69
2022-10-07T09:02:21.534Z,1008.59
2022-10-07T09:07:21.315Z,1008.50
2022-10-07T09:12:21.392Z,1008.49
2022-10-07T09:17:21.180Z,1008.44
2022-10-07T09:22:21.231Z,1008.40
2022-10-07T09:27:21.144Z,1008.32
2022-10-07T09:32:21.046Z,1008.25
2022-10-07T09:37:21.068Z,1008.26
2022-10-07T09:42:20.890Z,1008.15
2022-10-07T09:47:20.884Z,1008.12
2022-10-07T09:52:20.819Z,1008.01
2022-10-07T09:57:20.693Z,1007.93
2022-10-07T10:02:20.986Z,1007.88
2022-10-07T10:07:20.633Z,1007.91
2022-10-07T10:12:20.627Z,1007.80
2022-10-07T10:17:20.497Z,1007.78
2022-10-07T10:22:20.439Z,1007.67
2022-10-07T10:27:20.368Z,1007.55
2022-10-07T10:32:20.347Z,1007.59
2022-10-07T10:37:20.258Z,1007.53
2022-10-07T10:42:21.459Z,1007.47
2022-10-07T10:47:20.074Z,1007.43
2022-10-07T10:52:20.055Z,1007.33
2022-10-07T10:57:19.929Z,1007.23
2022-10-07T11:02:20.039Z,1007.08
2022-10-07T11:07:19.911Z,1007.01
2022-10-07T11:12:19.732Z,1007.02
2022-10-07T11:17:19.674Z,1006.95
2022-10-07T11:22:19.601Z,1006.90
2022-10-07T11:27:19.600Z,1006.77
2022-10-07T11:32:19.502Z,1006.74
2022-10-07T11:37:19.495Z,1006.62
2022-10-07T11:42:19.389Z,1006.50
2022-10-07T11:47:19.312Z,1006.42
2022-10-07T11:52:19.300Z,1006.32
2022-10-07T11:57:19.143Z,1006.32
2022-10-07T12:02:19.122Z,1006.17
2022-10-07T12:07:19.005Z,1006.04
2022-10-07T12:12:18.948Z,1006.00
2022-10-07T12:17:18.869Z,1005.94
2022-10-07T12:22:18.890Z,1005.86
2022-10-07T12:27:18.765Z,1005.75
2022-10-07T12:32:18.799Z,1005.62
2022-10-07T12:37:18.661Z,1005.60
2022-10-07T12:42:18.539Z,1005.49
2022-10-07T12:47:18.701Z,1005.37
2022-10-07T12:52:18.442Z,1005.35
2022-10-07T12:57:18.426Z,1005.32
2022-10-07T13:02:18.610Z,1005.21
2022-10-07T13:07:18.349Z,1005.08
2022-10-07T13:12:18.145Z,1005.07
2022-10-07T13:17:18.119Z,1005.00
2022-10-07T13:22:18.148Z,1004.99
2022-10-07T13:27:18.044Z,1004.81
2022-10-07T13:32:17.874Z,1004.74
2022-10-07T13:37:17.861Z,1004.68
2022-10-07T13:42:21.221Z,1004.59
2022-10-07T13:47:17.679Z,1004.47
2022-10-07T13:52:17.605Z,1004.38
2022-10-07T13:57:21.114Z,1004.33
2022-10-07T14:02:17.509Z,1004.26
2022-10-07T14:07:17.470Z,1004.08
2022-10-07T14:12:17.332Z,1004.03
2022-10-07T14:17:17.270Z,1003.99
2022-10-07T14:22:17.274Z,1003.93
2022-10-07T14:27:17.183Z,1003.85
2022-10-07T14:32:17.092Z,1003.81
2022-10-07T14:37:17.013Z,1003.73
2022-10-07T14:42:16.994Z,1003.58
2022-10-07T14:47:16.951Z,1003.55
2022-10-07T14:52:16.810Z,1003.46
2022-10-07T14:57:16.792Z,1003.36
2022-10-07T15:02:16.757Z,1003.28
2022-10-07T15:07:16.694Z,1003.26
2022-10-07T15:12:16.626Z,1003.21
2022-10-07T15:17:16.669Z,1003.10
2022-10-07T15:22:16.424Z,1003.03
2022-10-07T15:27:16.389Z,1003.01
2022-10-07T15:32:16.293Z,1003.00
2022-10-07T15:37:16.291Z,1002.95
2022-10-07T15:42:16.162Z,1002.99
2022-10-07T15:47:16.150Z,1002.93
2022-10-07T15:52:16.034Z,1002.88
2022-10-07T15:57:15.998Z,1002.81
2022-10-07T16:02:16.005Z,1002.81
2022-10-07T16:07:15.885Z,1002.77
2022-10-07T16:12:15.773Z,1002.76
2022-10-07T16:17:15.718Z,1002.78
2022-10-07T16:22:15.644Z,1002.72
2022-10-07T16:27:15.587Z,1002.70
2022-10-07T16:32:15.575Z,1002.75
2022-10-07T16:37:15.534Z,1002.71
2022-10-07T16:42:15.396Z,1002.67
2022-10-07T16:47:15.326Z,1002.60
2022-10-07T16:52:15.294Z,1002.63
2022-10-07T16:57:15.192Z,1002.63
2022-10-07T17:02:15.126Z,1002.65
2022-10-07T17:07:15.059Z,1002.67
2022-10-07T17:12:14.981Z,1002.67
2022-10-07T17:17:14.934Z,1002.70
2022-10-07T17:22:14.845Z,1002.66
2022-10-07T17:27:14.859Z,1002.65
2022-10-07T17:32:14.718Z,1002.67
2022-10-07T17:37:14.659Z,1002.65
2022-10-07T17:42:14.585Z,1002.69
2022-10-07T17:47:14.525Z,1002.61
2022-10-07T17:52:14.449Z,1002.64
2022-10-07T17:57:14.445Z,1002.60
2022-10-07T18:02:14.313Z,1002.53
2022-10-07T18:07:14.306Z,1002.62
2022-10-07T18:12:14.181Z,1002.63
2022-10-07T18:17:14.125Z,1002.57
2022-10-07T18:22:14.050Z,1002.60
2022-10-07T18:27:13.999Z,1002.57
2022-10-07T18:32:13.915Z,1002.54
2022-10-07T18:37:13.858Z,1002.51
2022-10-07T18:42:13.784Z,1002.46
2022-10-07T18:47:13.723Z,1002.39
2022-10-07T18:52:13.646Z,1002.43
2022-10-07T18:57:13.586Z,1002.35
2022-10-07T19:02:13.547Z,1002.39
2022-10-07T19:07:13.468Z,1002.31
2022-10-07T19:12:13.374Z,1002.29
2022-10-07T19:17:13.314Z,1002.19
2022-10-07T19:22:13.239Z,1002.14
2022-10-07T19:27:13.203Z,1002.10
2022-10-07T19:32:13.211Z,1002.09
2022-10-07T19:37:13.043Z,1002.11
2022-10-07T19:42:12.971Z,1002.11
2022-10-07T19:47:12.913Z,1001.96
2022-10-07T19:52:12.831Z,1001.97
2022-10-07T19:57:12.778Z,1001.87
2022-10-07T20:02:12.770Z,1001.85
2022-10-07T20:07:12.632Z,1001.80
2022-10-07T20:12:12.559Z,1001.79
2022-10-07T20:17:12.499Z,1001.82
2022-10-07T20:22:12.421Z,1001.75
2022-10-07T20:27:12.365Z,1001.66
2022-10-07T20:32:12.358Z,1001.64
2022-10-07T20:37:12.297Z,1001.69
2022-10-07T20:42:12.163Z,1001.64
2022-10-07T20:47:12.103Z,1001.62
2022-10-07T20:52:12.027Z,1001.55
2022-10-07T20:57:11.967Z,1001.49
2022-10-07T21:02:12.105Z,1001.45
2022-10-07T21:07:11.829Z,1001.42
2022-10-07T21:12:11.754Z,1001.38
2022-10-07T21:17:11.735Z,1001.40
2022-10-07T21:22:11.618Z,1001.40
2022-10-07T21:27:11.632Z,1001.28
2022-10-07T21:32:11.485Z,1001.29
2022-10-07T21:37:11.425Z,1001.18
2022-10-07T21:42:11.475Z,1001.09
2022-10-07T21:47:11.282Z,1001.04
2022-10-07T21:52:11.207Z,1001.00
2022-10-07T21:57:11.145Z,1000.89
2022-10-07T22:02:11.218Z,1000.89
2022-10-07T22:07:11.007Z,1000.84
2022-10-07T22:12:10.932Z,1000.78
2022-10-07T22:17:10.870Z,1000.73
2022-10-07T22:22:10.796Z,1000.72
2022-10-07T22:27:10.741Z,1000.63
2022-10-07T22:32:10.660Z,1000.63
2022-10-07T22:37:10.600Z,1000.52
2022-10-07T22:42:10.530Z,1000.57
2022-10-07T22:47:10.470Z,1000.63
2022-10-07T22:52:10.398Z,1000.59
2022-10-07T22:57:10.337Z,1000.45
2022-10-07T23:02:10.372Z,1000.41
2022-10-07T23:07:10.205Z,1000.40
2022-10-07T23:12:10.135Z,1000.32
2022-10-07T23:17:10.084Z,1000.25
2022-10-07T23:22:10.000Z,1000.18
2022-10-07T23:27:09.943Z,1000.19
2022-10-07T23:32:09.868Z,1000.24
2022-10-07T23:37:09.840Z,1000.19
2022-10-07T23:42:09.736Z,1000.17
2022-10-07T23:47:09.677Z,1000.13
2022-10-07T23:52:09.608Z,1000.07
2022-10-07T23:57:09.661Z,1000.03
